createdAt,value
2019-01-31T00:00:01.219Z,87.40
2019-01-31T00:01:01.186Z,87.82
2019-01-31T00:02:01.322Z,87.88
2019-01-31T00:03:01.223Z,87.61
2019-01-31T00:04:01.158Z,87.93
2019-01-31T00:05:01.152Z,87.19
2019-01-31T00:06:01.145Z,86.88
2019-01-31T00:07:01.149Z,87.19
2019-01-31T00:08:01.111Z,87.09
2019-01-31T00:09:01.253Z,86.36
2019-01-31T00:10:01.134Z,86.57
2019-01-31T00:11:01.113Z,86.77
2019-01-31T00:12:01.100Z,86.53
2019-01-31T00:13:01.125Z,86.77
2019-01-31T00:14:01.106Z,86.99
2019-01-31T00:15:01.164Z,86.67
2019-01-31T00:16:01.048Z,87.05
2019-01-31T00:17:01.041Z,86.94
2019-01-31T00:18:01.241Z,86.88
2019-01-31T00:19:01.014Z,86.63
2019-01-31T00:20:00.989Z,86.46
2019-01-31T00:21:00.968Z,87.19
2019-01-31T00:22:00.974Z,87.15
2019-01-31T00:23:00.970Z,87.51
2019-01-31T00:24:00.973Z,87.78
2019-01-31T00:25:00.934Z,87.26
2019-01-31T00:26:00.929Z,86.77
2019-01-31T00:27:00.936Z,86.88
2019-01-31T00:28:00.915Z,86.94
2019-01-31T00:29:01.047Z,86.77
2019-01-31T00:30:00.883Z,86.67
2019-01-31T00:31:00.917Z,86.57
2019-01-31T00:32:00.869Z,86.84
2019-01-31T00:33:00.847Z,86.99
2019-01-31T00:34:00.843Z,86.88
2019-01-31T00:35:00.862Z,86.88
2019-01-31T00:36:00.816Z,86.94
2019-01-31T00:37:00.797Z,86.99
2019-01-31T00:38:00.799Z,86.88
2019-01-31T00:39:00.793Z,86.94
2019-01-31T00:40:00.774Z,87.09
2019-01-31T00:41:00.786Z,86.46
2019-01-31T00:42:00.751Z,86.57
2019-01-31T00:43:00.813Z,87.05
2019-01-31T00:44:00.749Z,86.94
2019-01-31T00:45:00.718Z,86.57
2019-01-31T00:46:00.706Z,86.77
2019-01-31T00:47:00.726Z,87.05
2019-01-31T00:48:00.693Z,87.15
2019-01-31T00:49:00.683Z,87.88
2019-01-31T00:50:00.683Z,86.94
2019-01-31T00:51:00.649Z,87.09
2019-01-31T00:52:00.713Z,86.84
2019-01-31T00:53:00.644Z,86.74
2019-01-31T00:54:00.630Z,86.63
2019-01-31T00:55:00.685Z,86.74
2019-01-31T00:56:00.608Z,86.74
2019-01-31T00:57:00.589Z,86.53
2019-01-31T00:58:00.601Z,86.94
2019-01-31T00:59:00.572Z,87.15
2019-01-31T01:00:00.567Z,87.05
2019-01-31T01:01:00.676Z,86.57
2019-01-31T01:02:00.556Z,86.74
2019-01-31T01:03:00.537Z,86.43
2019-01-31T01:04:00.729Z,87.05
2019-01-31T01:05:00.504Z,86.94
2019-01-31T01:06:00.517Z,86.74
2019-01-31T01:07:00.490Z,85.69
2019-01-31T01:08:00.488Z,86.11
2019-01-31T01:09:07.651Z,85.59
2019-01-31T01:10:01.453Z,86.57
2019-01-31T01:11:00.437Z,86.43
2019-01-31T01:12:00.433Z,86.99
2019-01-31T01:13:00.415Z,86.57
2019-01-31T01:14:00.529Z,86.57
2019-01-31T01:15:00.491Z,87.47
2019-01-31T01:16:00.385Z,87.78
2019-01-31T01:17:00.371Z,86.88
2019-01-31T01:18:00.376Z,86.46
2019-01-31T01:19:00.358Z,86.36
2019-01-31T01:20:00.344Z,86.53
2019-01-31T01:21:00.360Z,87.19
2019-01-31T01:22:00.362Z,86.57
2019-01-31T01:23:00.326Z,86.99
2019-01-31T01:24:00.298Z,87.57
2019-01-31T01:25:00.312Z,87.47
2019-01-31T01:26:00.277Z,87.78
2019-01-31T01:27:00.278Z,87.68
2019-01-31T01:28:00.301Z,87.71
2019-01-31T01:29:00.238Z,86.53
2019-01-31T01:30:00.253Z,86.57
2019-01-31T01:31:00.244Z,87.05
2019-01-31T01:32:00.212Z,88.09
2019-01-31T01:33:00.225Z,88.41
2019-01-31T01:34:00.189Z,88.09
2019-01-31T01:35:01.271Z,86.88
2019-01-31T01:36:00.171Z,87.82
2019-01-31T01:37:00.203Z,87.37
2019-01-31T01:38:00.160Z,87.19
2019-01-31T01:39:00.129Z,87.51
2019-01-31T01:40:00.339Z,87.82
2019-01-31T01:41:00.114Z,88.30
2019-01-31T01:42:00.129Z,88.65
2019-01-31T01:43:00.108Z,88.93
2019-01-31T01:44:00.088Z,88.24
2019-01-31T01:45:00.145Z,87.30
2019-01-31T01:46:00.068Z,87.51
2019-01-31T01:47:00.055Z,87.40
2019-01-31T01:48:00.077Z,88.13
2019-01-31T01:49:00.034Z,88.13
2019-01-31T01:50:00.028Z,88.72
2019-01-31T01:51:00.029Z,88.97
2019-01-31T01:51:59.991Z,88.65
2019-01-31T01:53:00.039Z,88.51
2019-01-31T01:53:59.979Z,88.24
2019-01-31T01:54:59.975Z,88.87
2019-01-31T01:55:59.974Z,88.45
2019-01-31T01:56:59.942Z,88.87
2019-01-31T01:57:59.939Z,88.45
2019-01-31T01:58:59.950Z,88.87
2019-01-31T01:59:59.910Z,88.76
2019-01-31T02:00:59.901Z,88.87
2019-01-31T02:01:59.887Z,88.76
2019-01-31T02:02:59.884Z,89.18
2019-01-31T02:03:59.880Z,89.49
2019-01-31T02:04:59.886Z,89.70
2019-01-31T02:05:59.854Z,88.65
2019-01-31T02:06:59.834Z,88.82
2019-01-31T02:07:59.832Z,89.24
2019-01-31T02:08:59.822Z,89.07
2019-01-31T02:09:59.818Z,88.62
2019-01-31T02:10:59.824Z,88.62
2019-01-31T02:11:59.789Z,88.72
2019-01-31T02:12:59.767Z,88.45
2019-01-31T02:13:59.759Z,88.97
2019-01-31T02:14:59.742Z,89.03
2019-01-31T02:15:59.768Z,89.03
2019-01-31T02:16:59.742Z,88.82
2019-01-31T02:17:59.717Z,88.51
2019-01-31T02:18:59.711Z,88.93
2019-01-31T02:19:59.694Z,89.45
2019-01-31T02:20:59.684Z,89.34
2019-01-31T02:21:59.700Z,89.59
2019-01-31T02:22:59.695Z,90.01
2019-01-31T02:23:59.649Z,89.70
2019-01-31T02:24:59.649Z,89.91
2019-01-31T02:25:59.623Z,90.08
2019-01-31T02:26:59.618Z,89.70
2019-01-31T02:27:59.621Z,89.45
2019-01-31T02:28:59.598Z,89.24
2019-01-31T02:29:59.586Z,89.18
2019-01-31T02:30:59.582Z,89.07
2019-01-31T02:31:59.563Z,89.28
2019-01-31T02:32:59.579Z,89.66
2019-01-31T02:33:59.548Z,89.87
2019-01-31T02:34:59.537Z,89.97
2019-01-31T02:35:59.529Z,90.18
2019-01-31T02:36:59.520Z,89.76
2019-01-31T02:37:59.509Z,90.08
2019-01-31T02:38:59.523Z,90.18
2019-01-31T02:39:59.484Z,89.45
2019-01-31T02:40:59.465Z,89.87
2019-01-31T02:41:59.463Z,90.22
2019-01-31T02:42:59.441Z,90.50
2019-01-31T02:43:59.440Z,90.08
2019-01-31T02:44:59.456Z,89.97
2019-01-31T02:45:59.427Z,90.60
2019-01-31T02:46:59.421Z,90.28
2019-01-31T02:47:59.407Z,90.39
2019-01-31T02:48:59.382Z,90.70
2019-01-31T02:49:59.380Z,90.33
2019-01-31T02:50:59.375Z,89.91
2019-01-31T02:51:59.347Z,89.49
2019-01-31T02:52:59.341Z,89.39
2019-01-31T02:53:59.330Z,89.87
2019-01-31T02:54:59.320Z,89.34
2019-01-31T02:55:59.334Z,89.87
2019-01-31T02:56:59.296Z,90.18
2019-01-31T02:57:59.283Z,90.70
2019-01-31T02:58:59.272Z,90.08
2019-01-31T02:59:59.293Z,89.97
2019-01-31T03:00:59.256Z,90.08
2019-01-31T03:01:59.268Z,90.39
2019-01-31T03:02:59.232Z,90.43
2019-01-31T03:03:59.217Z,90.64
2019-01-31T03:04:59.218Z,90.12
2019-01-31T03:05:59.204Z,90.08
2019-01-31T03:06:59.190Z,90.60
2019-01-31T03:07:59.209Z,90.70
2019-01-31T03:08:59.164Z,90.50
2019-01-31T03:09:59.148Z,90.50
2019-01-31T03:10:59.143Z,90.50
2019-01-31T03:11:59.129Z,90.50
2019-01-31T03:12:59.128Z,91.02
2019-01-31T03:14:10.024Z,92.10
2019-01-31T03:15:00.278Z,91.64
2019-01-31T03:15:59.092Z,91.22
2019-01-31T03:16:59.097Z,91.22
2019-01-31T03:17:59.066Z,91.12
2019-01-31T03:18:59.070Z,91.22
2019-01-31T03:19:59.038Z,90.60
2019-01-31T03:20:59.036Z,90.70
2019-01-31T03:21:59.036Z,90.50
2019-01-31T03:22:59.015Z,90.53
2019-01-31T03:23:59.035Z,90.70
2019-01-31T03:24:59.011Z,90.28
2019-01-31T03:25:58.985Z,90.39
2019-01-31T03:26:58.975Z,90.70
2019-01-31T03:27:58.967Z,90.39
2019-01-31T03:28:58.966Z,90.39
2019-01-31T03:29:58.953Z,90.28
2019-01-31T03:30:58.924Z,90.50
2019-01-31T03:31:58.915Z,90.28
2019-01-31T03:32:58.898Z,90.28
2019-01-31T03:33:58.899Z,90.70
2019-01-31T03:34:58.911Z,90.28
2019-01-31T03:35:58.911Z,90.39
2019-01-31T03:36:58.856Z,90.50
2019-01-31T03:37:58.843Z,90.60
2019-01-31T03:38:58.841Z,90.28
2019-01-31T03:40:06.735Z,90.39
2019-01-31T03:40:59.845Z,90.12
2019-01-31T03:41:58.819Z,89.28
2019-01-31T03:42:58.797Z,89.07
2019-01-31T03:43:58.778Z,88.87
2019-01-31T03:44:58.773Z,87.09
2019-01-31T03:45:58.788Z,87.51
2019-01-31T03:46:58.759Z,87.51
2019-01-31T03:47:58.737Z,88.45
2019-01-31T03:48:58.741Z,88.13
2019-01-31T03:49:58.713Z,86.99
2019-01-31T03:50:58.716Z,87.19
2019-01-31T03:51:58.725Z,87.09
2019-01-31T03:52:58.691Z,87.09
2019-01-31T03:53:58.669Z,86.99
2019-01-31T03:54:58.705Z,86.88
2019-01-31T03:55:58.647Z,86.46
2019-01-31T03:56:58.636Z,86.88
2019-01-31T03:57:58.646Z,86.99
2019-01-31T03:58:58.631Z,86.99
2019-01-31T03:59:58.615Z,86.88
2019-01-31T04:00:58.600Z,86.67
2019-01-31T04:01:58.582Z,86.46
2019-01-31T04:02:58.594Z,86.77
2019-01-31T04:03:58.571Z,86.77
2019-01-31T04:04:58.560Z,88.45
2019-01-31T04:05:58.544Z,88.55
2019-01-31T04:06:58.527Z,87.71
2019-01-31T04:07:58.565Z,87.13
2019-01-31T04:08:58.518Z,86.99
2019-01-31T04:09:58.507Z,87.40
2019-01-31T04:10:58.490Z,86.77
2019-01-31T04:11:58.480Z,86.46
2019-01-31T04:12:58.477Z,86.25
2019-01-31T04:13:58.479Z,85.83
2019-01-31T04:14:58.451Z,86.51
2019-01-31T04:15:58.443Z,86.67
2019-01-31T04:16:58.475Z,87.02
2019-01-31T04:17:58.413Z,87.09
2019-01-31T04:18:58.420Z,87.09
2019-01-31T04:19:58.397Z,87.45
2019-01-31T04:20:58.376Z,86.57
2019-01-31T04:21:58.371Z,86.36
2019-01-31T04:22:58.354Z,85.98
2019-01-31T04:23:58.347Z,85.35
2019-01-31T04:24:58.364Z,86.15
2019-01-31T04:25:58.342Z,86.99
2019-01-31T04:26:58.316Z,86.67
2019-01-31T04:27:58.318Z,86.99
2019-01-31T04:28:58.295Z,86.57
2019-01-31T04:29:58.280Z,87.09
2019-01-31T04:30:58.336Z,86.67
2019-01-31T04:31:58.253Z,86.46
2019-01-31T04:32:58.247Z,86.36
2019-01-31T04:33:58.249Z,86.57
2019-01-31T04:34:58.258Z,86.57
2019-01-31T04:35:58.232Z,86.57
2019-01-31T04:36:58.219Z,86.46
2019-01-31T04:37:58.191Z,87.19
2019-01-31T04:38:58.184Z,86.67
2019-01-31T04:39:58.168Z,87.09
2019-01-31T04:40:58.189Z,86.88
2019-01-31T04:41:58.251Z,87.09
2019-01-31T04:42:58.153Z,86.99
2019-01-31T04:43:58.126Z,86.57
2019-01-31T04:44:58.116Z,86.46
2019-01-31T04:45:58.146Z,86.46
2019-01-31T04:46:58.092Z,86.46
2019-01-31T04:47:58.089Z,86.36
2019-01-31T04:48:58.089Z,86.67
2019-01-31T04:49:58.095Z,86.67
2019-01-31T04:50:58.076Z,86.88
2019-01-31T04:51:58.043Z,87.61
2019-01-31T04:52:58.039Z,87.09
2019-01-31T04:53:58.025Z,86.77
2019-01-31T04:54:58.028Z,86.46
2019-01-31T04:55:58.041Z,86.77
2019-01-31T04:56:58.030Z,86.71
2019-01-31T04:57:57.981Z,86.46
2019-01-31T04:58:57.974Z,86.67
2019-01-31T04:59:57.963Z,86.67
2019-01-31T05:00:57.951Z,86.57
2019-01-31T05:01:57.978Z,86.88
2019-01-31T05:02:57.961Z,86.99
2019-01-31T05:03:57.916Z,86.57
2019-01-31T05:04:57.909Z,86.46
2019-01-31T05:05:57.935Z,86.57
2019-01-31T05:06:57.892Z,85.83
2019-01-31T05:07:57.880Z,86.77
2019-01-31T05:08:57.865Z,86.77
2019-01-31T05:09:57.851Z,86.99
2019-01-31T05:10:57.853Z,88.13
2019-01-31T05:11:57.865Z,88.24
2019-01-31T05:12:57.823Z,88.55
2019-01-31T05:13:57.812Z,88.87
2019-01-31T05:14:57.804Z,88.24
2019-01-31T05:15:57.798Z,88.24
2019-01-31T05:16:57.814Z,87.61
2019-01-31T05:17:57.761Z,87.71
2019-01-31T05:18:57.755Z,87.71
2019-01-31T05:19:57.752Z,87.82
2019-01-31T05:20:57.736Z,87.09
2019-01-31T05:21:57.743Z,87.61
2019-01-31T05:22:57.719Z,86.88
2019-01-31T05:23:57.702Z,86.99
2019-01-31T05:24:57.691Z,87.19
2019-01-31T05:25:57.684Z,88.28
2019-01-31T05:26:57.684Z,89.07
2019-01-31T05:27:57.677Z,88.45
2019-01-31T05:28:57.690Z,87.09
2019-01-31T05:29:57.639Z,87.09
2019-01-31T05:30:57.629Z,88.24
2019-01-31T05:31:57.617Z,88.24
2019-01-31T05:32:59.075Z,87.71
2019-01-31T05:33:57.628Z,86.67
2019-01-31T05:34:57.589Z,86.67
2019-01-31T05:35:57.575Z,86.46
2019-01-31T05:36:57.572Z,86.46
2019-01-31T05:37:57.552Z,87.09
2019-01-31T05:38:57.535Z,86.99
2019-01-31T05:39:57.553Z,86.99
2019-01-31T05:40:57.520Z,86.57
2019-01-31T05:41:57.510Z,86.57
2019-01-31T05:42:57.513Z,86.88
2019-01-31T05:43:57.485Z,86.57
2019-01-31T05:44:57.470Z,87.71
2019-01-31T05:45:57.484Z,87.93
2019-01-31T05:46:57.451Z,87.82
2019-01-31T05:47:57.444Z,87.09
2019-01-31T05:48:57.427Z,86.99
2019-01-31T05:49:57.440Z,87.09
2019-01-31T05:50:57.426Z,86.88
2019-01-31T05:51:57.399Z,86.46
2019-01-31T05:52:57.385Z,86.99
2019-01-31T05:53:57.387Z,86.88
2019-01-31T05:54:57.360Z,86.46
2019-01-31T05:55:57.386Z,86.57
2019-01-31T05:56:57.352Z,86.67
2019-01-31T05:57:57.341Z,86.88
2019-01-31T05:58:57.332Z,86.88
2019-01-31T05:59:57.326Z,88.45
2019-01-31T06:00:57.315Z,88.55
2019-01-31T06:01:57.302Z,87.99
2019-01-31T06:02:57.293Z,88.13
2019-01-31T06:03:57.269Z,87.82
2019-01-31T06:04:57.257Z,86.53
2019-01-31T06:05:57.250Z,86.77
2019-01-31T06:06:57.271Z,86.46
2019-01-31T06:07:57.249Z,86.77
2019-01-31T06:08:57.232Z,86.53
2019-01-31T06:09:57.210Z,86.77
2019-01-31T06:11:07.106Z,86.67
2019-01-31T06:11:58.195Z,85.73
2019-01-31T06:12:57.170Z,86.67
2019-01-31T06:13:57.174Z,87.51
2019-01-31T06:14:57.158Z,87.19
2019-01-31T06:15:57.145Z,87.71
2019-01-31T06:16:57.157Z,87.82
2019-01-31T06:17:57.144Z,87.71
2019-01-31T06:18:57.141Z,86.88
2019-01-31T06:19:57.099Z,87.40
2019-01-31T06:20:57.098Z,87.82
2019-01-31T06:21:57.101Z,88.55
2019-01-31T06:22:57.079Z,89.07
2019-01-31T06:23:57.071Z,88.24
2019-01-31T06:24:57.051Z,87.93
2019-01-31T06:25:57.027Z,88.03
2019-01-31T06:26:57.077Z,88.34
2019-01-31T06:27:57.006Z,88.20
2019-01-31T06:28:57.015Z,87.51
2019-01-31T06:29:57.015Z,88.34
2019-01-31T06:30:56.990Z,87.93
2019-01-31T06:31:56.972Z,87.68
2019-01-31T06:32:56.978Z,87.71
2019-01-31T06:33:56.954Z,87.61
2019-01-31T06:34:56.936Z,88.13
2019-01-31T06:35:56.939Z,88.34
2019-01-31T06:36:56.914Z,88.93
2019-01-31T06:37:56.922Z,88.93
2019-01-31T06:38:56.902Z,87.93
2019-01-31T06:39:56.880Z,88.30
2019-01-31T06:40:56.872Z,87.93
2019-01-31T06:41:56.863Z,88.55
2019-01-31T06:42:56.877Z,88.34
2019-01-31T06:43:56.834Z,88.62
2019-01-31T06:44:56.846Z,88.13
2019-01-31T06:45:56.817Z,87.30
2019-01-31T06:46:56.808Z,86.77
2019-01-31T06:47:56.791Z,87.30
2019-01-31T06:48:56.818Z,87.09
2019-01-31T06:49:56.779Z,86.88
2019-01-31T06:50:56.768Z,86.63
2019-01-31T06:51:56.759Z,87.51
2019-01-31T06:52:58.209Z,87.61
2019-01-31T06:53:56.772Z,88.13
2019-01-31T06:54:56.733Z,87.93
2019-01-31T06:55:56.718Z,88.87
2019-01-31T06:56:56.825Z,88.87
2019-01-31T06:57:56.706Z,89.18
2019-01-31T06:58:56.671Z,89.28
2019-01-31T06:59:56.699Z,89.59
2019-01-31T07:00:56.657Z,89.49
2019-01-31T07:01:56.643Z,89.70
2019-01-31T07:02:56.639Z,89.28
2019-01-31T07:03:56.647Z,89.49
2019-01-31T07:04:56.635Z,89.39
2019-01-31T07:05:56.624Z,88.97
2019-01-31T07:06:56.608Z,89.07
2019-01-31T07:07:56.583Z,88.97
2019-01-31T07:08:56.590Z,89.45
2019-01-31T07:09:56.554Z,89.07
2019-01-31T07:10:56.545Z,89.70
2019-01-31T07:11:56.557Z,89.28
2019-01-31T07:12:56.537Z,89.49
2019-01-31T07:13:56.514Z,89.07
2019-01-31T07:14:56.512Z,89.07
2019-01-31T07:15:56.493Z,89.59
2019-01-31T07:16:56.491Z,89.49
2019-01-31T07:17:56.496Z,89.39
2019-01-31T07:18:56.479Z,89.18
2019-01-31T07:19:56.663Z,88.87
2019-01-31T07:20:56.447Z,89.39
2019-01-31T07:21:56.437Z,89.70
2019-01-31T07:22:56.449Z,90.22
2019-01-31T07:23:56.427Z,89.91
2019-01-31T07:24:56.411Z,89.91
2019-01-31T07:25:56.387Z,90.43
2019-01-31T07:26:56.386Z,89.70
2019-01-31T07:27:56.396Z,89.24
2019-01-31T07:28:56.383Z,89.70
2019-01-31T07:29:56.358Z,89.91
2019-01-31T07:30:56.337Z,89.39
2019-01-31T07:31:56.331Z,89.07
2019-01-31T07:32:56.331Z,89.59
2019-01-31T07:33:56.384Z,89.91
2019-01-31T07:34:56.309Z,89.81
2019-01-31T07:35:56.320Z,89.56
2019-01-31T07:36:56.308Z,89.34
2019-01-31T07:37:56.485Z,89.70
2019-01-31T07:38:56.335Z,89.91
2019-01-31T07:39:56.253Z,89.76
2019-01-31T07:40:56.239Z,90.12
2019-01-31T07:41:56.224Z,89.66
2019-01-31T07:42:57.017Z,89.70
2019-01-31T07:43:56.221Z,89.66
2019-01-31T07:44:56.190Z,89.76
2019-01-31T07:45:56.179Z,89.56
2019-01-31T07:46:56.167Z,89.24
2019-01-31T07:47:56.163Z,89.59
2019-01-31T07:48:56.153Z,89.91
2019-01-31T07:49:56.178Z,89.87
2019-01-31T07:50:56.126Z,89.70
2019-01-31T07:51:56.115Z,90.18
2019-01-31T07:52:56.170Z,90.08
2019-01-31T07:53:56.097Z,90.70
2019-01-31T07:54:56.485Z,90.08
2019-01-31T07:55:56.121Z,90.50
2019-01-31T07:56:56.062Z,90.39
2019-01-31T07:57:56.056Z,90.39
2019-01-31T07:58:56.036Z,90.39
2019-01-31T07:59:56.236Z,89.45
2019-01-31T08:00:56.058Z,89.34
2019-01-31T08:01:56.009Z,89.45
2019-01-31T08:02:56.002Z,89.45
2019-01-31T08:04:02.488Z,89.49
2019-01-31T08:04:56.990Z,89.34
2019-01-31T08:05:55.990Z,88.82
2019-01-31T08:06:55.963Z,88.93
2019-01-31T08:07:55.945Z,88.82
2019-01-31T08:08:55.944Z,88.62
2019-01-31T08:09:56.215Z,88.41
2019-01-31T08:10:55.908Z,89.03
2019-01-31T08:11:55.915Z,89.14
2019-01-31T08:12:55.891Z,89.24
2019-01-31T08:13:55.882Z,89.03
2019-01-31T08:14:55.968Z,89.03
2019-01-31T08:15:55.880Z,89.24
2019-01-31T08:16:56.020Z,88.51
2019-01-31T08:17:55.837Z,88.93
2019-01-31T08:18:55.824Z,89.45
2019-01-31T08:19:55.814Z,89.45
2019-01-31T08:20:55.798Z,89.03
2019-01-31T08:21:55.787Z,88.62
2019-01-31T08:22:55.794Z,89.03
2019-01-31T08:23:55.782Z,88.93
2019-01-31T08:24:55.760Z,89.10
2019-01-31T08:25:55.751Z,88.82
2019-01-31T08:26:56.091Z,88.57
2019-01-31T08:27:55.760Z,88.78
2019-01-31T08:28:55.724Z,88.57
2019-01-31T08:29:55.709Z,88.99
2019-01-31T08:30:55.869Z,88.68
2019-01-31T08:31:55.676Z,88.16
2019-01-31T08:32:55.691Z,88.16
2019-01-31T08:33:55.663Z,88.37
2019-01-31T08:34:55.663Z,88.57
2019-01-31T08:35:55.646Z,88.78
2019-01-31T08:36:55.626Z,88.78
2019-01-31T08:37:55.624Z,88.99
2019-01-31T08:38:55.626Z,88.68
2019-01-31T08:39:55.602Z,88.89
2019-01-31T08:40:55.602Z,88.85
2019-01-31T08:42:03.463Z,88.68
2019-01-31T08:42:56.607Z,88.64
2019-01-31T08:43:55.568Z,88.53
2019-01-31T08:44:55.540Z,88.85
2019-01-31T08:45:55.541Z,88.64
2019-01-31T08:46:55.513Z,88.01
2019-01-31T08:47:55.514Z,88.32
2019-01-31T08:48:55.503Z,87.39
2019-01-31T08:49:55.506Z,87.39
2019-01-31T08:50:55.477Z,87.39
2019-01-31T08:51:55.482Z,88.12
2019-01-31T08:52:55.456Z,87.49
2019-01-31T08:53:55.453Z,88.06
2019-01-31T08:54:55.458Z,88.12
2019-01-31T08:55:55.472Z,88.12
2019-01-31T08:56:55.409Z,88.22
2019-01-31T08:57:55.403Z,87.81
2019-01-31T08:58:55.382Z,88.85
2019-01-31T08:59:55.372Z,87.60
2019-01-31T09:00:55.377Z,86.76
2019-01-31T09:01:55.353Z,87.49
2019-01-31T09:02:55.345Z,87.60
2019-01-31T09:03:55.337Z,87.60
2019-01-31T09:04:55.321Z,86.66
2019-01-31T09:05:55.330Z,87.60
2019-01-31T09:06:55.306Z,88.01
2019-01-31T09:07:55.291Z,88.29
2019-01-31T09:08:55.295Z,88.18
2019-01-31T09:09:55.288Z,87.70
2019-01-31T09:10:55.296Z,87.55
2019-01-31T09:11:55.257Z,86.66
2019-01-31T09:12:55.240Z,86.83
2019-01-31T09:13:55.216Z,86.76
2019-01-31T09:14:55.219Z,86.87
2019-01-31T09:15:55.233Z,86.76
2019-01-31T09:16:55.190Z,86.83
2019-01-31T09:17:55.180Z,86.41
2019-01-31T09:18:55.168Z,86.30
2019-01-31T09:19:55.158Z,86.55
2019-01-31T09:20:55.173Z,86.41
2019-01-31T09:21:55.161Z,86.30
2019-01-31T09:22:55.131Z,86.93
2019-01-31T09:23:55.120Z,87.35
2019-01-31T09:24:55.097Z,86.61
2019-01-31T09:25:55.181Z,85.68
2019-01-31T09:26:55.105Z,86.61
2019-01-31T09:27:55.069Z,87.14
2019-01-31T09:28:55.059Z,86.58
2019-01-31T09:29:55.068Z,86.47
2019-01-31T09:30:55.053Z,86.83
2019-01-31T09:31:55.028Z,87.24
2019-01-31T09:32:55.050Z,86.72
2019-01-31T09:33:55.011Z,86.41
2019-01-31T09:34:54.995Z,86.41
2019-01-31T09:35:54.985Z,85.58
2019-01-31T09:36:54.982Z,86.41
2019-01-31T09:37:54.961Z,86.79
2019-01-31T09:38:54.985Z,85.12
2019-01-31T09:39:54.934Z,84.50
2019-01-31T09:40:54.923Z,85.26
2019-01-31T09:41:54.931Z,86.27
2019-01-31T09:42:54.913Z,86.27
2019-01-31T09:43:54.892Z,86.47
2019-01-31T09:44:54.917Z,86.47
2019-01-31T09:45:54.894Z,86.58
2019-01-31T09:46:54.923Z,87.35
2019-01-31T09:47:54.886Z,86.61
2019-01-31T09:48:54.841Z,84.64
2019-01-31T09:49:54.839Z,86.79
2019-01-31T09:50:54.853Z,86.83
2019-01-31T09:51:54.809Z,86.41
2019-01-31T09:52:54.810Z,85.16
2019-01-31T09:53:54.783Z,85.05
2019-01-31T09:54:54.790Z,84.12
2019-01-31T09:55:54.808Z,84.81
2019-01-31T09:56:54.780Z,84.50
2019-01-31T09:57:54.751Z,84.70
2019-01-31T09:58:54.753Z,84.70
2019-01-31T09:59:54.740Z,84.50
2019-01-31T10:00:54.724Z,86.79
2019-01-31T10:01:54.729Z,86.47
2019-01-31T10:02:54.695Z,86.47
2019-01-31T10:03:54.692Z,85.12
2019-01-31T10:04:54.669Z,84.60
2019-01-31T10:05:54.665Z,85.12
2019-01-31T10:06:54.659Z,85.22
2019-01-31T10:07:54.676Z,86.58
2019-01-31T10:08:54.620Z,86.58
2019-01-31T10:09:54.629Z,84.98
2019-01-31T10:10:54.676Z,85.43
2019-01-31T10:11:54.627Z,86.37
2019-01-31T10:12:54.626Z,87.27
2019-01-31T10:13:54.754Z,86.85
2019-01-31T10:14:54.559Z,86.33
2019-01-31T10:15:54.568Z,86.33
2019-01-31T10:16:54.622Z,86.33
2019-01-31T10:17:54.662Z,86.54
2019-01-31T10:18:54.625Z,85.08
2019-01-31T10:19:54.521Z,84.77
2019-01-31T10:20:54.557Z,86.22
2019-01-31T10:21:55.515Z,86.54
2019-01-31T10:22:54.478Z,85.50
2019-01-31T10:23:54.560Z,85.29
2019-01-31T10:24:54.703Z,86.33
2019-01-31T10:25:54.504Z,86.27
2019-01-31T10:26:54.440Z,85.39
2019-01-31T10:27:54.420Z,87.68
2019-01-31T10:28:54.415Z,86.65
2019-01-31T10:29:54.426Z,86.54
2019-01-31T10:30:54.381Z,86.33
2019-01-31T10:31:54.376Z,86.22
2019-01-31T10:32:54.358Z,86.54
2019-01-31T10:33:54.370Z,87.79
2019-01-31T10:34:54.344Z,86.65
2019-01-31T10:35:54.414Z,86.22
2019-01-31T10:36:54.337Z,86.65
2019-01-31T10:37:54.305Z,86.12
2019-01-31T10:38:54.839Z,86.54
2019-01-31T10:39:54.284Z,87.16
2019-01-31T10:40:54.285Z,86.75
2019-01-31T10:41:54.289Z,86.54
2019-01-31T10:42:54.302Z,86.12
2019-01-31T10:43:54.325Z,84.77
2019-01-31T10:44:54.246Z,84.98
2019-01-31T10:45:54.228Z,85.08
2019-01-31T10:46:54.342Z,86.43
2019-01-31T10:47:54.229Z,86.33
2019-01-31T10:48:54.221Z,85.50
2019-01-31T10:49:54.188Z,84.77
2019-01-31T10:50:54.164Z,86.12
2019-01-31T10:51:54.219Z,85.50
2019-01-31T10:52:54.208Z,86.91
2019-01-31T10:53:54.237Z,86.81
2019-01-31T10:54:54.181Z,87.23
2019-01-31T10:55:54.109Z,85.39
2019-01-31T10:56:54.100Z,85.29
2019-01-31T10:57:54.157Z,86.40
2019-01-31T10:58:54.302Z,86.08
2019-01-31T10:59:54.070Z,86.96
2019-01-31T11:00:54.141Z,86.75
2019-01-31T11:01:54.048Z,86.40
2019-01-31T11:02:54.082Z,85.35
2019-01-31T11:03:54.037Z,84.45
2019-01-31T11:04:54.049Z,83.69
2019-01-31T11:05:54.091Z,83.31
2019-01-31T11:06:54.074Z,84.31
2019-01-31T11:07:54.055Z,84.52
2019-01-31T11:08:53.976Z,85.98
2019-01-31T11:09:53.985Z,85.25
2019-01-31T11:10:54.107Z,86.71
2019-01-31T11:11:53.943Z,86.19
2019-01-31T11:13:00.740Z,85.67
2019-01-31T11:13:54.997Z,84.90
2019-01-31T11:14:53.913Z,85.73
2019-01-31T11:15:54.011Z,85.21
2019-01-31T11:16:53.921Z,84.83
2019-01-31T11:17:53.900Z,84.48
2019-01-31T11:18:55.116Z,83.27
2019-01-31T11:19:53.870Z,83.37
2019-01-31T11:20:53.861Z,83.17
2019-01-31T11:21:53.914Z,81.81
2019-01-31T11:22:53.865Z,81.50
2019-01-31T11:23:53.900Z,82.82
2019-01-31T11:24:53.798Z,82.44
2019-01-31T11:25:53.789Z,81.60
2019-01-31T11:26:53.777Z,80.46
2019-01-31T11:27:53.821Z,80.98
2019-01-31T11:28:53.755Z,81.71
2019-01-31T11:29:53.800Z,82.34
2019-01-31T11:30:53.741Z,83.06
2019-01-31T11:31:53.725Z,82.03
2019-01-31T11:32:53.717Z,81.60
2019-01-31T11:33:53.728Z,81.50
2019-01-31T11:34:53.706Z,81.92
2019-01-31T11:35:53.689Z,82.65
2019-01-31T11:36:53.684Z,83.58
2019-01-31T11:37:53.668Z,81.60
2019-01-31T11:38:53.683Z,81.09
2019-01-31T11:39:53.660Z,80.15
2019-01-31T11:40:53.673Z,79.73
2019-01-31T11:41:53.629Z,80.26
2019-01-31T11:42:53.607Z,79.63
2019-01-31T11:43:53.607Z,78.90
2019-01-31T11:44:53.636Z,78.69
2019-01-31T11:45:53.583Z,80.88
2019-01-31T11:46:53.583Z,80.26
2019-01-31T11:47:53.569Z,79.63
2019-01-31T11:48:53.545Z,79.83
2019-01-31T11:49:53.541Z,78.97
2019-01-31T11:50:53.574Z,79.32
2019-01-31T11:51:53.516Z,77.65
2019-01-31T11:52:53.500Z,77.86
2019-01-31T11:53:53.559Z,79.21
2019-01-31T11:54:55.298Z,79.28
2019-01-31T11:55:53.502Z,80.67
2019-01-31T11:56:53.463Z,79.21
2019-01-31T11:57:53.458Z,79.21
2019-01-31T11:58:53.436Z,79.59
2019-01-31T11:59:53.428Z,82.40
2019-01-31T12:00:53.458Z,81.36
2019-01-31T12:01:53.410Z,80.53
2019-01-31T12:02:55.186Z,80.94
2019-01-31T12:03:53.393Z,81.26
2019-01-31T12:04:53.376Z,80.63
2019-01-31T12:05:53.366Z,80.63
2019-01-31T12:06:53.412Z,81.43
2019-01-31T12:07:53.343Z,83.30
2019-01-31T12:08:53.787Z,81.84
2019-01-31T12:09:53.331Z,79.03
2019-01-31T12:10:53.317Z,79.97
2019-01-31T12:11:53.354Z,80.29
2019-01-31T12:12:53.294Z,80.70
2019-01-31T12:13:53.342Z,80.70
2019-01-31T12:14:53.281Z,80.29
2019-01-31T12:15:53.261Z,81.43
2019-01-31T12:16:53.254Z,81.12
2019-01-31T12:17:53.318Z,80.18
2019-01-31T12:18:53.251Z,81.01
2019-01-31T12:19:53.223Z,81.74
2019-01-31T12:20:53.295Z,82.57
2019-01-31T12:21:53.209Z,81.32
2019-01-31T12:22:53.211Z,81.95
2019-01-31T12:23:53.216Z,79.66
2019-01-31T12:24:53.173Z,78.52
2019-01-31T12:25:53.208Z,77.58
2019-01-31T12:26:53.150Z,78.41
2019-01-31T12:27:53.176Z,77.89
2019-01-31T12:28:53.128Z,78.72
2019-01-31T12:29:53.111Z,78.93
2019-01-31T12:30:53.121Z,78.27
2019-01-31T12:31:53.101Z,79.45
2019-01-31T12:32:53.087Z,80.39
2019-01-31T12:33:53.118Z,80.87
2019-01-31T12:34:53.061Z,82.57
2019-01-31T12:35:53.049Z,79.52
2019-01-31T12:36:53.042Z,78.93
2019-01-31T12:37:53.045Z,78.20
2019-01-31T12:38:55.038Z,77.69
2019-01-31T12:39:53.003Z,78.52
2019-01-31T12:40:52.987Z,77.44
2019-01-31T12:41:52.982Z,78.62
2019-01-31T12:42:52.982Z,80.39
2019-01-31T12:43:52.980Z,77.69
2019-01-31T12:44:52.967Z,77.03
2019-01-31T12:45:52.933Z,78.20
2019-01-31T12:46:52.924Z,79.45
2019-01-31T12:47:52.934Z,77.48
2019-01-31T12:48:52.901Z,78.20
2019-01-31T12:49:52.928Z,76.33
2019-01-31T12:50:52.887Z,77.37
2019-01-31T12:51:52.879Z,78.20